sensor_id;sensor_type;location;lat;lon;timestamp;pressure;altitude;pressure_sealevel;temperature;humidity
63500;BME280;49654;51.142;14.924;2022-12-11T00:00:37;98423.06;;;0.48;78.72
63500;BME280;49654;51.142;14.924;2022-12-11T00:03:05;98419.69;;;0.48;78.22
63500;BME280;49654;51.142;14.924;2022-12-11T00:05:32;98422.19;;;0.38;78.07
63500;BME280;49654;51.142;14.924;2022-12-11T00:07:59;98435.72;;;0.29;78.75
63500;BME280;49654;51.142;14.924;2022-12-11T00:10:27;98435.94;;;0.16;78.91
63500;BME280;49654;51.142;14.924;2022-12-11T00:12:54;98424.75;;;0.38;78.45
63500;BME280;49654;51.142;14.924;2022-12-11T00:15:21;98428.94;;;0.39;78.29
63500;BME280;49654;51.142;14.924;2022-12-11T00:17:49;98430.03;;;0.46;78.14
63500;BME280;49654;51.142;14.924;2022-12-11T00:20:16;98425.00;;;0.66;77.46
63500;BME280;49654;51.142;14.924;2022-12-11T00:22:43;98423.84;;;0.49;76.98
63500;BME280;49654;51.142;14.924;2022-12-11T00:25:10;98427.00;;;0.62;77.12
63500;BME280;49654;51.142;14.924;2022-12-11T00:27:38;98436.44;;;0.71;77.38
63500;BME280;49654;51.142;14.924;2022-12-11T00:30:06;98390.13;;;0.24;76.82
63500;BME280;49654;51.142;14.924;2022-12-11T00:32:33;98410.66;;;0.44;77.23
63500;BME280;49654;51.142;14.924;2022-12-11T00:35:00;98434.41;;;0.65;76.91
63500;BME280;49654;51.142;14.924;2022-12-11T00:37:27;98432.41;;;0.69;76.91
63500;BME280;49654;51.142;14.924;2022-12-11T00:39:54;98442.41;;;0.82;76.42
63500;BME280;49654;51.142;14.924;2022-12-11T00:42:21;98438.75;;;0.84;76.14
63500;BME280;49654;51.142;14.924;2022-12-11T00:44:50;98438.59;;;0.76;76.16
63500;BME280;49654;51.142;14.924;2022-12-11T00:47:17;98438.53;;;0.57;76.67
63500;BME280;49654;51.142;14.924;2022-12-11T00:49:44;98438.25;;;0.50;76.59
63500;BME280;49654;51.142;14.924;2022-12-11T00:52:11;98448.22;;;0.53;76.81
63500;BME280;49654;51.142;14.924;2022-12-11T00:54:38;98437.91;;;0.64;77.21
63500;BME280;49654;51.142;14.924;2022-12-11T00:57:05;98445.31;;;0.77;76.74
63500;BME280;49654;51.142;14.924;2022-12-11T00:59:32;98448.94;;;0.65;76.15
63500;BME280;49654;51.142;14.924;2022-12-11T01:02:00;98453.28;;;0.74;76.39
63500;BME280;49654;51.142;14.924;2022-12-11T01:04:27;98450.94;;;0.61;75.81
63500;BME280;49654;51.142;14.924;2022-12-11T01:06:54;98450.81;;;0.72;75.72
63500;BME280;49654;51.142;14.924;2022-12-11T01:09:21;98451.66;;;0.73;75.65
63500;BME280;49654;51.142;14.924;2022-12-11T01:12:06;98451.13;;;0.79;75.65
63500;BME280;49654;51.142;14.924;2022-12-11T01:14:33;98450.47;;;0.87;75.56
63500;BME280;49654;51.142;14.924;2022-12-11T01:17:02;98451.28;;;0.87;75.70
63500;BME280;49654;51.142;14.924;2022-12-11T01:19:29;98456.03;;;0.61;76.20
63500;BME280;49654;51.142;14.924;2022-12-11T01:21:56;98451.44;;;0.55;76.18
63500;BME280;49654;51.142;14.924;2022-12-11T01:24:23;98456.72;;;0.63;76.46
63500;BME280;49654;51.142;14.924;2022-12-11T01:26:50;98458.84;;;0.58;75.88
63500;BME280;49654;51.142;14.924;2022-12-11T01:29:17;98457.66;;;0.62;75.75
63500;BME280;49654;51.142;14.924;2022-12-11T01:31:44;98453.13;;;0.75;76.03
63500;BME280;49654;51.142;14.924;2022-12-11T01:34:12;98451.78;;;0.81;75.58
63500;BME280;49654;51.142;14.924;2022-12-11T01:36:39;98449.53;;;0.78;75.50
63500;BME280;49654;51.142;14.924;2022-12-11T01:39:07;98452.03;;;0.68;75.67
63500;BME280;49654;51.142;14.924;2022-12-11T01:41:34;98448.88;;;0.55;75.67
63500;BME280;49654;51.142;14.924;2022-12-11T01:44:04;98455.25;;;0.61;76.30
63500;BME280;49654;51.142;14.924;2022-12-11T01:46:33;98422.84;;;0.31;76.06
63500;BME280;49654;51.142;14.924;2022-12-11T01:49:03;98462.16;;;0.49;75.93
63500;BME280;49654;51.142;14.924;2022-12-11T01:51:37;98459.78;;;0.57;76.38
63500;BME280;49654;51.142;14.924;2022-12-11T01:54:08;98455.72;;;0.55;76.22
63500;BME280;49654;51.142;14.924;2022-12-11T01:56:39;98455.25;;;0.70;76.20
63500;BME280;49654;51.142;14.924;2022-12-11T01:59:08;98443.72;;;0.76;75.33
63500;BME280;49654;51.142;14.924;2022-12-11T02:01:39;98439.13;;;0.70;76.01
63500;BME280;49654;51.142;14.924;2022-12-11T02:04:07;98438.59;;;0.36;75.98
63500;BME280;49654;51.142;14.924;2022-12-11T02:06:38;98443.69;;;0.36;76.87
63500;BME280;49654;51.142;14.924;2022-12-11T02:09:08;98430.16;;;0.45;76.35
63500;BME280;49654;51.142;14.924;2022-12-11T02:11:46;98444.03;;;0.52;76.36
63500;BME280;49654;51.142;14.924;2022-12-11T02:14:20;98449.94;;;0.43;76.36
63500;BME280;49654;51.142;14.924;2022-12-11T02:16:55;98449.41;;;0.49;76.58
63500;BME280;49654;51.142;14.924;2022-12-11T02:19:41;98450.72;;;0.43;75.84
63500;BME280;49654;51.142;14.924;2022-12-11T02:22:17;98437.50;;;0.38;76.20
63500;BME280;49654;51.142;14.924;2022-12-11T02:24:59;98444.47;;;0.57;76.24
63500;BME280;49654;51.142;14.924;2022-12-11T02:27:34;98451.13;;;0.39;75.91
63500;BME280;49654;51.142;14.924;2022-12-11T02:30:06;98451.41;;;0.45;76.58
63500;BME280;49654;51.142;14.924;2022-12-11T02:32:36;98435.25;;;0.45;76.33
63500;BME280;49654;51.142;14.924;2022-12-11T02:35:09;98439.44;;;0.46;76.38
63500;BME280;49654;51.142;14.924;2022-12-11T02:37:41;98427.44;;;0.37;75.94
63500;BME280;49654;51.142;14.924;2022-12-11T02:40:12;98427.19;;;0.40;76.20
63500;BME280;49654;51.142;14.924;2022-12-11T02:42:42;98423.69;;;0.41;75.75
63500;BME280;49654;51.142;14.924;2022-12-11T02:45:11;98389.34;;;0.24;75.86
63500;BME280;49654;51.142;14.924;2022-12-11T02:47:40;98427.16;;;0.30;76.06
63500;BME280;49654;51.142;14.924;2022-12-11T02:50:13;98400.50;;;0.23;75.97
63500;BME280;49654;51.142;14.924;2022-12-11T02:52:43;98433.16;;;0.29;75.08
63500;BME280;49654;51.142;14.924;2022-12-11T02:55:13;98431.00;;;0.24;76.73
63500;BME280;49654;51.142;14.924;2022-12-11T02:57:43;98435.22;;;0.35;76.33
63500;BME280;49654;51.142;14.924;2022-12-11T03:00:13;98424.84;;;0.27;76.28
63500;BME280;49654;51.142;14.924;2022-12-11T03:02:41;98437.41;;;0.40;76.07
63500;BME280;49654;51.142;14.924;2022-12-11T03:05:10;98437.16;;;0.43;75.99
63500;BME280;49654;51.142;14.924;2022-12-11T03:07:40;98428.81;;;0.50;75.68
63500;BME280;49654;51.142;14.924;2022-12-11T03:10:11;98433.94;;;0.50;75.65
63500;BME280;49654;51.142;14.924;2022-12-11T03:12:41;98432.50;;;0.27;75.85
63500;BME280;49654;51.142;14.924;2022-12-11T03:15:12;98428.06;;;0.29;75.93
63500;BME280;49654;51.142;14.924;2022-12-11T03:17:49;98411.47;;;0.14;76.35
63500;BME280;49654;51.142;14.924;2022-12-11T03:20:25;98361.63;;;-0.11;76.48
63500;BME280;49654;51.142;14.924;2022-12-11T03:23:01;98401.63;;;0.30;75.78
63500;BME280;49654;51.142;14.924;2022-12-11T03:25:33;98427.59;;;0.45;75.58
63500;BME280;49654;51.142;14.924;2022-12-11T03:28:07;98435.25;;;0.45;75.56
63500;BME280;49654;51.142;14.924;2022-12-11T03:30:35;98404.97;;;0.31;75.20
63500;BME280;49654;51.142;14.924;2022-12-11T03:33:06;98439.41;;;0.15;75.59
63500;BME280;49654;51.142;14.924;2022-12-11T03:35:36;98434.91;;;0.29;75.79
63500;BME280;49654;51.142;14.924;2022-12-11T03:38:07;98444.94;;;0.20;75.13
63500;BME280;49654;51.142;14.924;2022-12-11T03:40:37;98436.50;;;-0.01;76.58
63500;BME280;49654;51.142;14.924;2022-12-11T03:43:06;98426.56;;;-0.25;76.02
63500;BME280;49654;51.142;14.924;2022-12-11T03:45:33;98423.06;;;-0.24;76.48
63500;BME280;49654;51.142;14.924;2022-12-11T03:48:01;98410.59;;;-0.59;77.00
63500;BME280;49654;51.142;14.924;2022-12-11T03:50:32;98447.22;;;-0.28;77.32
63500;BME280;49654;51.142;14.924;2022-12-11T03:53:02;98428.53;;;-0.49;77.51
63500;BME280;49654;51.142;14.924;2022-12-11T03:55:32;98449.16;;;-0.20;76.91
63500;BME280;49654;51.142;14.924;2022-12-11T03:57:59;98451.63;;;-0.09;77.16
63500;BME280;49654;51.142;14.924;2022-12-11T04:00:26;98436.25;;;0.02;76.78
63500;BME280;49654;51.142;14.924;2022-12-11T04:02:53;98424.91;;;-0.05;75.62
63500;BME280;49654;51.142;14.924;2022-12-11T04:05:36;98442.53;;;0.19;76.14
63500;BME280;49654;51.142;14.924;2022-12-11T04:08:03;98440.84;;;0.29;75.80
63500;BME280;49654;51.142;14.924;2022-12-11T04:10:30;98443.28;;;0.31;75.44
63500;BME280;49654;51.142;14.924;2022-12-11T04:12:57;98402.75;;;-0.05;75.83
63500;BME280;49654;51.142;14.924;2022-12-11T04:15:24;98453.31;;;0.02;76.03
63500;BME280;49654;51.142;14.924;2022-12-11T04:17:50;98452.94;;;0.06;76.46
63500;BME280;49654;51.142;14.924;2022-12-11T04:20:36;98446.28;;;0.15;76.04
63500;BME280;49654;51.142;14.924;2022-12-11T04:23:21;98444.53;;;0.15;75.54
63500;BME280;49654;51.142;14.924;2022-12-11T04:26:07;98448.41;;;-0.11;76.42
63500;BME280;49654;51.142;14.924;2022-12-11T04:28:35;98454.13;;;0.02;76.20
63500;BME280;49654;51.142;14.924;2022-12-11T04:31:03;98441.00;;;0.07;75.89
63500;BME280;49654;51.142;14.924;2022-12-11T04:33:30;98422.94;;;-0.02;76.15
63500;BME280;49654;51.142;14.924;2022-12-11T04:35:59;98437.13;;;-0.09;75.76
63500;BME280;49654;51.142;14.924;2022-12-11T04:38:26;98443.13;;;0.02;75.50
63500;BME280;49654;51.142;14.924;2022-12-11T04:40:57;98448.25;;;0.11;75.29
63500;BME280;49654;51.142;14.924;2022-12-11T04:43:24;98413.72;;;-0.56;75.74
63500;BME280;49654;51.142;14.924;2022-12-11T04:45:59;98438.34;;;-0.45;76.31
63500;BME280;49654;51.142;14.924;2022-12-11T04:48:26;98346.59;;;-1.09;76.45
63500;BME280;49654;51.142;14.924;2022-12-11T04:50:54;98432.31;;;-0.44;76.70
63500;BME280;49654;51.142;14.924;2022-12-11T04:53:22;98434.25;;;-0.36;76.08
63500;BME280;49654;51.142;14.924;2022-12-11T04:55:49;98439.53;;;-0.49;76.12
63500;BME280;49654;51.142;14.924;2022-12-11T04:58:16;98440.06;;;-0.66;76.59
63500;BME280;49654;51.142;14.924;2022-12-11T05:00:43;98435.28;;;-0.60;76.44
63500;BME280;49654;51.142;14.924;2022-12-11T05:03:10;98437.09;;;-0.51;76.43
63500;BME280;49654;51.142;14.924;2022-12-11T05:05:38;98427.53;;;-0.69;76.18
63500;BME280;49654;51.142;14.924;2022-12-11T05:08:05;98429.56;;;-0.52;75.66
63500;BME280;49654;51.142;14.924;2022-12-11T05:10:33;98424.88;;;-0.68;76.52
63500;BME280;49654;51.142;14.924;2022-12-11T05:13:00;98434.72;;;-0.63;76.53
63500;BME280;49654;51.142;14.924;2022-12-11T05:15:27;98427.38;;;-0.89;76.67
63500;BME280;49654;51.142;14.924;2022-12-11T05:17:54;98420.34;;;-1.08;76.82
63500;BME280;49654;51.142;14.924;2022-12-11T05:20:22;98421.72;;;-0.92;77.69
63500;BME280;49654;51.142;14.924;2022-12-11T05:22:49;98419.75;;;-0.89;76.05
63500;BME280;49654;51.142;14.924;2022-12-11T05:25:16;98422.56;;;-0.71;76.99
63500;BME280;49654;51.142;14.924;2022-12-11T05:27:45;98403.78;;;-0.70;76.57
63500;BME280;49654;51.142;14.924;2022-12-11T05:30:12;98399.81;;;-0.95;76.10
63500;BME280;49654;51.142;14.924;2022-12-11T05:32:39;98403.50;;;-0.88;76.95
63500;BME280;49654;51.142;14.924;2022-12-11T05:35:06;98400.53;;;-1.04;76.73
63500;BME280;49654;51.142;14.924;2022-12-11T05:37:33;98402.31;;;-1.27;76.86
63500;BME280;49654;51.142;14.924;2022-12-11T05:40:01;98400.44;;;-1.03;77.63
63500;BME280;49654;51.142;14.924;2022-12-11T05:42:28;98390.84;;;-1.21;77.07
63500;BME280;49654;51.142;14.924;2022-12-11T05:44:57;98401.91;;;-1.00;76.75
63500;BME280;49654;51.142;14.924;2022-12-11T05:47:24;98375.63;;;-1.01;76.08
63500;BME280;49654;51.142;14.924;2022-12-11T05:49:51;98399.06;;;-0.74;75.74
63500;BME280;49654;51.142;14.924;2022-12-11T05:52:18;98386.84;;;-0.92;75.28
63500;BME280;49654;51.142;14.924;2022-12-11T05:54:47;98391.34;;;-0.84;75.16
63500;BME280;49654;51.142;14.924;2022-12-11T05:57:14;98367.84;;;-0.99;74.81
63500;BME280;49654;51.142;14.924;2022-12-11T05:59:41;98333.44;;;-1.26;74.73
63500;BME280;49654;51.142;14.924;2022-12-11T06:02:10;98420.25;;;-0.74;74.44
63500;BME280;49654;51.142;14.924;2022-12-11T06:04:37;98419.97;;;-0.92;74.31
63500;BME280;49654;51.142;14.924;2022-12-11T06:07:04;98412.38;;;-1.14;74.56
63500;BME280;49654;51.142;14.924;2022-12-11T06:09:31;98417.66;;;-0.95;74.73
63500;BME280;49654;51.142;14.924;2022-12-11T06:11:58;98378.13;;;-1.21;74.41
63500;BME280;49654;51.142;14.924;2022-12-11T06:14:25;98426.72;;;-1.13;74.41
63500;BME280;49654;51.142;14.924;2022-12-11T06:16:52;98421.94;;;-0.95;74.27
63500;BME280;49654;51.142;14.924;2022-12-11T06:19:21;98429.00;;;-0.88;74.33
63500;BME280;49654;51.142;14.924;2022-12-11T06:21:48;98430.16;;;-0.81;73.97
63500;BME280;49654;51.142;14.924;2022-12-11T06:24:15;98425.66;;;-0.99;74.35
63500;BME280;49654;51.142;14.924;2022-12-11T06:26:42;98428.41;;;-0.80;74.29
63500;BME280;49654;51.142;14.924;2022-12-11T06:29:09;98425.72;;;-0.79;73.86
63500;BME280;49654;51.142;14.924;2022-12-11T06:31:36;98419.81;;;-0.79;73.95
63500;BME280;49654;51.142;14.924;2022-12-11T06:34:03;98428.16;;;-0.77;73.90
63500;BME280;49654;51.142;14.924;2022-12-11T06:36:32;98419.44;;;-0.74;73.50
63500;BME280;49654;51.142;14.924;2022-12-11T06:38:59;98431.72;;;-0.68;73.49
63500;BME280;49654;51.142;14.924;2022-12-11T06:41:26;98426.28;;;-0.64;73.20
63500;BME280;49654;51.142;14.924;2022-12-11T06:43:53;98428.91;;;-0.65;72.97
63500;BME280;49654;51.142;14.924;2022-12-11T06:46:20;98421.44;;;-0.78;73.09
63500;BME280;49654;51.142;14.924;2022-12-11T06:48:47;98422.53;;;-1.03;72.47
63500;BME280;49654;51.142;14.924;2022-12-11T06:51:17;98446.19;;;-1.12;74.17
63500;BME280;49654;51.142;14.924;2022-12-11T06:53:49;98441.41;;;-0.94;73.99
63500;BME280;49654;51.142;14.924;2022-12-11T06:56:17;98423.47;;;-1.04;73.26
63500;BME280;49654;51.142;14.924;2022-12-11T06:58:45;98444.34;;;-0.67;72.90
63500;BME280;49654;51.142;14.924;2022-12-11T07:01:14;98448.66;;;-0.67;72.56
63500;BME280;49654;51.142;14.924;2022-12-11T07:03:41;98446.78;;;-0.65;72.61
63500;BME280;49654;51.142;14.924;2022-12-11T07:06:09;98448.38;;;-0.64;71.69
63500;BME280;49654;51.142;14.924;2022-12-11T07:08:36;98362.38;;;-1.27;72.34
63500;BME280;49654;51.142;14.924;2022-12-11T07:11:05;98432.53;;;-1.11;72.38
63500;BME280;49654;51.142;14.924;2022-12-11T07:13:33;98446.75;;;-0.97;73.47
63500;BME280;49654;51.142;14.924;2022-12-11T07:16:01;98453.38;;;-1.29;72.97
63500;BME280;49654;51.142;14.924;2022-12-11T07:18:29;98455.13;;;-1.29;73.44
63500;BME280;49654;51.142;14.924;2022-12-11T07:20:58;98461.94;;;-1.18;73.53
63500;BME280;49654;51.142;14.924;2022-12-11T07:23:26;98442.41;;;-1.40;73.31
63500;BME280;49654;51.142;14.924;2022-12-11T07:25:53;98418.78;;;-1.42;73.86
63500;BME280;49654;51.142;14.924;2022-12-11T07:28:22;98466.56;;;-1.01;73.06
63500;BME280;49654;51.142;14.924;2022-12-11T07:30:49;98461.69;;;-1.04;73.11
63500;BME280;49654;51.142;14.924;2022-12-11T07:33:16;98450.41;;;-0.90;72.54
63500;BME280;49654;51.142;14.924;2022-12-11T07:35:43;98449.75;;;-0.92;72.02
63500;BME280;49654;51.142;14.924;2022-12-11T07:38:10;98461.31;;;-0.77;72.21
63500;BME280;49654;51.142;14.924;2022-12-11T07:40:37;98465.47;;;-0.44;71.89
63500;BME280;49654;51.142;14.924;2022-12-11T07:43:04;98467.34;;;-0.46;71.17
63500;BME280;49654;51.142;14.924;2022-12-11T07:45:33;98461.19;;;-0.76;70.56
63500;BME280;49654;51.142;14.924;2022-12-11T07:48:00;98458.66;;;-0.87;71.98
63500;BME280;49654;51.142;14.924;2022-12-11T07:50:27;98463.84;;;-0.45;71.82
63500;BME280;49654;51.142;14.924;2022-12-11T07:52:54;98443.94;;;-0.30;70.42
63500;BME280;49654;51.142;14.924;2022-12-11T07:55:21;98466.31;;;-0.02;69.64
63500;BME280;49654;51.142;14.924;2022-12-11T07:57:48;98467.03;;;0.01;69.97
63500;BME280;49654;51.142;14.924;2022-12-11T08:00:15;98470.44;;;-0.10;70.29
63500;BME280;49654;51.142;14.924;2022-12-11T08:02:44;98469.94;;;-0.25;70.16
63500;BME280;49654;51.142;14.924;2022-12-11T08:05:11;98453.44;;;-0.85;70.92
63500;BME280;49654;51.142;14.924;2022-12-11T08:07:38;98466.47;;;-0.35;70.95
63500;BME280;49654;51.142;14.924;2022-12-11T08:10:06;98466.41;;;-0.13;70.16
63500;BME280;49654;51.142;14.924;2022-12-11T08:12:33;98470.94;;;-0.16;70.62
63500;BME280;49654;51.142;14.924;2022-12-11T08:15:00;98466.88;;;-0.19;70.46
63500;BME280;49654;51.142;14.924;2022-12-11T08:17:27;98463.91;;;0.18;70.34
63500;BME280;49654;51.142;14.924;2022-12-11T08:19:55;98460.38;;;0.09;68.98
63500;BME280;49654;51.142;14.924;2022-12-11T08:22:22;98458.31;;;-0.50;69.31
63500;BME280;49654;51.142;14.924;2022-12-11T08:24:50;98457.47;;;-0.18;69.38
63500;BME280;49654;51.142;14.924;2022-12-11T08:27:17;98461.28;;;-0.34;69.07
63500;BME280;49654;51.142;14.924;2022-12-11T08:29:44;98441.72;;;-0.44;68.75
63500;BME280;49654;51.142;14.924;2022-12-11T08:32:12;98456.34;;;-0.46;69.45
63500;BME280;49654;51.142;14.924;2022-12-11T08:34:41;98417.22;;;-0.36;70.04
63500;BME280;49654;51.142;14.924;2022-12-11T08:37:10;98448.19;;;0.22;69.02
63500;BME280;49654;51.142;14.924;2022-12-11T08:39:38;98448.41;;;0.40;68.92
63500;BME280;49654;51.142;14.924;2022-12-11T08:42:05;98444.28;;;0.49;66.60
63500;BME280;49654;51.142;14.924;2022-12-11T08:44:33;98444.38;;;0.38;68.11
63500;BME280;49654;51.142;14.924;2022-12-11T08:47:00;98454.69;;;0.27;68.42
63500;BME280;49654;51.142;14.924;2022-12-11T08:49:27;98438.66;;;0.24;68.59
63500;BME280;49654;51.142;14.924;2022-12-11T08:51:54;98464.94;;;0.36;68.02
63500;BME280;49654;51.142;14.924;2022-12-11T08:54:22;98457.00;;;-0.12;68.63
63500;BME280;49654;51.142;14.924;2022-12-11T08:56:49;98448.19;;;0.43;69.57
63500;BME280;49654;51.142;14.924;2022-12-11T08:59:16;98446.66;;;0.71;67.97
63500;BME280;49654;51.142;14.924;2022-12-11T09:01:44;98412.06;;;0.27;66.99
63500;BME280;49654;51.142;14.924;2022-12-11T09:04:11;98448.22;;;0.53;68.72
63500;BME280;49654;51.142;14.924;2022-12-11T09:06:38;98443.06;;;0.84;71.89
63500;BME280;49654;51.142;14.924;2022-12-11T09:09:05;98339.41;;;0.01;72.51
63500;BME280;49654;51.142;14.924;2022-12-11T09:11:35;98448.78;;;0.57;72.38
63500;BME280;49654;51.142;14.924;2022-12-11T09:14:03;98450.75;;;0.53;69.98
63500;BME280;49654;51.142;14.924;2022-12-11T09:16:31;98450.28;;;0.38;68.79
63500;BME280;49654;51.142;14.924;2022-12-11T09:18:58;98446.63;;;0.31;69.88
63500;BME280;49654;51.142;14.924;2022-12-11T09:21:27;98435.66;;;0.81;69.04
63500;BME280;49654;51.142;14.924;2022-12-11T09:23:56;98440.03;;;1.09;67.47
63500;BME280;49654;51.142;14.924;2022-12-11T09:26:25;98437.22;;;1.12;67.13
63500;BME280;49654;51.142;14.924;2022-12-11T09:28:53;98430.50;;;1.40;66.27
63500;BME280;49654;51.142;14.924;2022-12-11T09:31:23;98421.91;;;1.41;65.51
63500;BME280;49654;51.142;14.924;2022-12-11T09:33:52;98443.03;;;1.43;66.24
63500;BME280;49654;51.142;14.924;2022-12-11T09:36:20;98445.19;;;1.48;66.76
63500;BME280;49654;51.142;14.924;2022-12-11T09:38:47;98438.47;;;1.57;65.73
63500;BME280;49654;51.142;14.924;2022-12-11T09:41:25;98433.06;;;1.31;64.64
63500;BME280;49654;51.142;14.924;2022-12-11T09:44:01;98399.13;;;1.19;65.87
63500;BME280;49654;51.142;14.924;2022-12-11T09:46:33;98434.94;;;1.48;65.43
63500;BME280;49654;51.142;14.924;2022-12-11T09:49:01;98430.44;;;0.82;67.65
63500;BME280;49654;51.142;14.924;2022-12-11T09:51:35;98410.78;;;0.73;67.81
63500;BME280;49654;51.142;14.924;2022-12-11T09:54:04;98431.81;;;0.56;69.93
63500;BME280;49654;51.142;14.924;2022-12-11T09:56:33;98427.81;;;0.72;68.67
63500;BME280;49654;51.142;14.924;2022-12-11T09:59:10;98413.31;;;0.33;69.59
63500;BME280;49654;51.142;14.924;2022-12-11T10:01:49;98412.94;;;0.16;70.08
63500;BME280;49654;51.142;14.924;2022-12-11T10:04:30;98369.50;;;-0.24;70.06
63500;BME280;49654;51.142;14.924;2022-12-11T10:07:05;98411.31;;;0.36;68.54
63500;BME280;49654;51.142;14.924;2022-12-11T10:09:41;98412.84;;;0.58;69.16
63500;BME280;49654;51.142;14.924;2022-12-11T10:12:18;98415.03;;;0.72;68.22
63500;BME280;49654;51.142;14.924;2022-12-11T10:15:04;98414.66;;;0.77;68.46
63500;BME280;49654;51.142;14.924;2022-12-11T10:17:39;98409.03;;;0.73;67.42
63500;BME280;49654;51.142;14.924;2022-12-11T10:20:17;98403.91;;;0.73;66.27
63500;BME280;49654;51.142;14.924;2022-12-11T10:22:48;98397.72;;;0.76;67.72
63500;BME280;49654;51.142;14.924;2022-12-11T10:25:20;98390.41;;;0.62;65.95
63500;BME280;49654;51.142;14.924;2022-12-11T10:27:47;98382.00;;;0.40;66.98
63500;BME280;49654;51.142;14.924;2022-12-11T10:30:19;98391.25;;;0.72;66.19
63500;BME280;49654;51.142;14.924;2022-12-11T10:32:53;98385.69;;;1.07;67.06
63500;BME280;49654;51.142;14.924;2022-12-11T10:35:30;98368.44;;;1.09;64.97
63500;BME280;49654;51.142;14.924;2022-12-11T10:38:09;98375.72;;;1.14;67.03
63500;BME280;49654;51.142;14.924;2022-12-11T10:40:39;98379.31;;;1.69;65.31
63500;BME280;49654;51.142;14.924;2022-12-11T10:43:08;98371.50;;;1.81;63.60
63500;BME280;49654;51.142;14.924;2022-12-11T10:45:37;98373.13;;;1.62;62.73
63500;BME280;49654;51.142;14.924;2022-12-11T10:48:05;98375.53;;;1.73;62.86
63500;BME280;49654;51.142;14.924;2022-12-11T10:50:33;98366.78;;;1.66;63.29
63500;BME280;49654;51.142;14.924;2022-12-11T10:53:00;98326.03;;;1.36;62.30
63500;BME280;49654;51.142;14.924;2022-12-11T10:55:30;98366.66;;;1.68;62.86
63500;BME280;49654;51.142;14.924;2022-12-11T10:58:04;98358.19;;;1.48;61.48
63500;BME280;49654;51.142;14.924;2022-12-11T11:00:34;98341.25;;;1.47;61.66
63500;BME280;49654;51.142;14.924;2022-12-11T11:03:04;98352.97;;;2.06;62.72
63500;BME280;49654;51.142;14.924;2022-12-11T11:05:35;98351.59;;;1.55;63.39
63500;BME280;49654;51.142;14.924;2022-12-11T11:08:12;98344.69;;;1.75;61.14
63500;BME280;49654;51.142;14.924;2022-12-11T11:10:50;98337.91;;;1.84;59.59
63500;BME280;49654;51.142;14.924;2022-12-11T11:13:20;98320.91;;;2.02;59.69
63500;BME280;49654;51.142;14.924;2022-12-11T11:15:47;98339.47;;;2.04;61.58
63500;BME280;49654;51.142;14.924;2022-12-11T11:18:22;98341.28;;;1.94;60.10
63500;BME280;49654;51.142;14.924;2022-12-11T11:20:52;98338.28;;;1.42;63.34
63500;BME280;49654;51.142;14.924;2022-12-11T11:23:20;98349.59;;;1.10;62.45
63500;BME280;49654;51.142;14.924;2022-12-11T11:25:53;98345.09;;;0.54;64.43
63500;BME280;49654;51.142;14.924;2022-12-11T11:28:24;98328.38;;;0.40;64.48
63500;BME280;49654;51.142;14.924;2022-12-11T11:31:00;98340.91;;;0.43;66.20
63500;BME280;49654;51.142;14.924;2022-12-11T11:33:30;98335.94;;;0.52;64.42
63500;BME280;49654;51.142;14.924;2022-12-11T11:36:00;98313.19;;;0.39;64.67
63500;BME280;49654;51.142;14.924;2022-12-11T11:38:30;98345.78;;;0.56;66.21
63500;BME280;49654;51.142;14.924;2022-12-11T11:41:04;98336.63;;;0.13;65.26
63500;BME280;49654;51.142;14.924;2022-12-11T11:43:39;98351.88;;;-0.27;66.18
63500;BME280;49654;51.142;14.924;2022-12-11T11:46:13;98352.63;;;-0.15;67.29
63500;BME280;49654;51.142;14.924;2022-12-11T11:48:50;98340.97;;;-0.08;67.11
63500;BME280;49654;51.142;14.924;2022-12-11T11:51:24;98306.47;;;-0.33;67.98
63500;BME280;49654;51.142;14.924;2022-12-11T11:53:55;98340.09;;;0.12;68.82
63500;BME280;49654;51.142;14.924;2022-12-11T11:56:26;98332.38;;;-0.07;66.84
63500;BME280;49654;51.142;14.924;2022-12-11T11:59:00;98339.19;;;0.13;67.89
63500;BME280;49654;51.142;14.924;2022-12-11T12:01:29;98337.53;;;0.43;67.54
63500;BME280;49654;51.142;14.924;2022-12-11T12:04:00;98269.16;;;0.16;66.74
63500;BME280;49654;51.142;14.924;2022-12-11T12:06:41;98300.03;;;0.43;67.06
63500;BME280;49654;51.142;14.924;2022-12-11T12:09:18;98323.91;;;0.33;67.39
63500;BME280;49654;51.142;14.924;2022-12-11T12:11:55;98316.41;;;0.41;67.10
63500;BME280;49654;51.142;14.924;2022-12-11T12:14:29;98306.59;;;-0.04;67.13
63500;BME280;49654;51.142;14.924;2022-12-11T12:17:05;98261.59;;;-0.36;69.59
63500;BME280;49654;51.142;14.924;2022-12-11T12:19:49;98315.06;;;-0.04;68.86
63500;BME280;49654;51.142;14.924;2022-12-11T12:22:27;98318.97;;;0.01;69.30
63500;BME280;49654;51.142;14.924;2022-12-11T12:25:02;98322.44;;;-0.01;69.31
63500;BME280;49654;51.142;14.924;2022-12-11T12:27:38;98319.19;;;0.18;68.83
63500;BME280;49654;51.142;14.924;2022-12-11T12:30:13;98316.53;;;-0.01;68.51
63500;BME280;49654;51.142;14.924;2022-12-11T12:32:46;98317.66;;;-0.24;68.93
63500;BME280;49654;51.142;14.924;2022-12-11T12:35:29;98319.88;;;-0.31;69.55
63500;BME280;49654;51.142;14.924;2022-12-11T12:38:01;98321.34;;;-0.59;70.35
63500;BME280;49654;51.142;14.924;2022-12-11T12:40:34;98312.06;;;-0.60;70.46
63500;BME280;49654;51.142;14.924;2022-12-11T12:43:16;98309.41;;;-0.80;70.51
63500;BME280;49654;51.142;14.924;2022-12-11T12:45:50;98326.53;;;-0.82;70.64
63500;BME280;49654;51.142;14.924;2022-12-11T12:48:20;98327.44;;;-0.51;71.50
63500;BME280;49654;51.142;14.924;2022-12-11T12:50:50;98305.94;;;-0.27;71.04
63500;BME280;49654;51.142;14.924;2022-12-11T12:53:19;98315.91;;;-0.24;70.31
63500;BME280;49654;51.142;14.924;2022-12-11T12:55:49;98290.00;;;-0.19;69.95
63500;BME280;49654;51.142;14.924;2022-12-11T12:58:27;98306.09;;;0.02;69.94
63500;BME280;49654;51.142;14.924;2022-12-11T13:01:05;98294.19;;;-0.09;68.88
63500;BME280;49654;51.142;14.924;2022-12-11T13:03:35;98302.72;;;0.02;69.38
63500;BME280;49654;51.142;14.924;2022-12-11T13:06:07;98282.09;;;-0.16;68.72
63500;BME280;49654;51.142;14.924;2022-12-11T13:08:40;98293.56;;;-0.01;69.71